Clearfield, PA

11:59 AM EST on January 18, 2018 (GMT -0500)
Clearfield-Lawrence

Weather History for KFIG - June, 2013

Change the Weather History Date:

Friday, June 7, 2013

  Actual Average (KDUJ) Record (KDUJ)
Temperature  
Mean Temperature 60 °F -  
Max Temperature 64 °F 74 °F 88 °F (1968)
Min Temperature 57 °F 54 °F 39 °F (1977)
Degree Days  
Heating Degree Days 4    
Growing Degree Days 10 (Base 50)    
Moisture  
Dew Point 60 °F    
Average Humidity 95    
Maximum Humidity 100    
Minimum Humidity 88    
Precipitation  
Precipitation 0.24 in - - ()
Sea Level Pressure  
Sea Level Pressure 29.81 in    
Wind  
Wind Speed 4 mph (NE)    
Max Wind Speed 8 mph    
Max Gust Speed -    
Visibility 4 miles    
Events Fog , Rain    
Averages and records for this station are not official NWS values.
T = Trace of Precipitation, MM = Missing Value Source: NWS Daily Summary

Daily Weather History Graph

Daily Weather History Graph

Search for Another Location

Airport or City:

Trip Planner

Search our weather history database for the weather conditions in past years. The results will help you decide how hot, cold, wet, or windy it might be!

Date:

Astronomy

Jun. 07, 2013 Rise Set
Actual Time 5:41 AM EDT 8:43 PM EDT
Civil Twilight 5:08 AM EDT 9:17 PM EDT
Nautical Twilight 4:25 AM EDT 9:59 PM EDT
Astronomical Twilight 3:36 AM EDT 10:49 PM EDT
Moon 5:03 AM EDT (6/7) 7:55 PM EDT (6/7)
Length of Visible Light 16h 08m
Length of Day
15h 02m
Waning Crescent, 1% of the Moon is Illuminated
Jun 7
Waning Crescent
Jun 8
New
Jun 16
First Quarter
Jun 23
Full
Jun 30
Last Quarter

Hourly Weather History & Observations

Time (EDT) Temp. Dew Point Humidity Pressure Visibility Wind Dir Wind Speed Gust Speed Precip Events Conditions
12:07 AM 59.0 °F 57.2 °F 94% 29.86 in 4.0 mi NE 4.6 mph - 0.00 in Rain Light Rain
12:16 AM 57.2 °F 57.2 °F 100% 29.86 in 2.0 mi NE 4.6 mph - 0.01 in Rain Light Rain
12:24 AM 57.2 °F 57.2 °F 100% 29.86 in 1.5 mi NNE 3.5 mph - 0.02 in Rain Light Rain
12:54 AM 57.9 °F 57.9 °F 100% 29.85 in 0.8 mi North 3.5 mph - 0.04 in Rain Light Rain
1:19 AM 57.2 °F 57.2 °F 100% 29.85 in 1.2 mi North 4.6 mph - 0.00 in Rain Light Rain
1:54 AM 59.0 °F 57.9 °F 96% 29.84 in 1.2 mi NNE 4.6 mph - 0.02 in Rain Light Rain
2:05 AM 57.2 °F 57.2 °F 100% 29.84 in 0.5 mi NNE 4.6 mph - 0.01 in Fog , Rain Light Rain
2:39 AM 59.0 °F 57.2 °F 94% 29.84 in 0.8 mi NNE 3.5 mph - 0.03 in Rain Light Rain
2:52 AM 59.0 °F 57.2 °F 94% 29.83 in 1.2 mi NNE 4.6 mph - 0.04 in Rain Light Rain
2:54 AM 59.0 °F 57.9 °F 96% 29.83 in 1.2 mi NNE 4.6 mph - 0.04 in Rain Light Rain
3:19 AM 59.0 °F 57.2 °F 94% 29.83 in 3.0 mi NNE 4.6 mph - 0.03 in Rain Light Rain
3:24 AM 59.0 °F 57.2 °F 94% 29.83 in 1.8 mi NNE 3.5 mph - 0.03 in Rain Light Rain
3:54 AM 59.0 °F 57.9 °F 96% 29.82 in 1.0 mi NNE 4.6 mph - 0.05 in Rain Light Rain
4:14 AM 59.0 °F 57.2 °F 94% 29.82 in 0.8 mi NNE 3.5 mph - 0.01 in Rain Rain
4:54 AM 59.0 °F 57.9 °F 96% 29.81 in 0.8 mi North 4.6 mph - 0.03 in   Mist
5:10 AM 59.0 °F 57.2 °F 94% 29.82 in 1.2 mi NNE 4.6 mph - N/A   Overcast
5:16 AM 59.0 °F 57.2 °F 94% 29.82 in 3.0 mi NE 3.5 mph - N/A   Overcast
5:54 AM 59.0 °F 57.9 °F 96% 29.82 in 2.5 mi NE 4.6 mph - 0.00 in Rain Light Rain
6:03 AM 59.0 °F 57.2 °F 94% 29.82 in 0.8 mi NE 3.5 mph - 0.00 in   Overcast
6:19 AM 60.8 °F 59.0 °F 94% 29.82 in 1.2 mi NE 3.5 mph - 0.01 in   Overcast
6:30 AM 60.8 °F 59.0 °F 94% 29.83 in 0.2 mi NNE 3.5 mph - 0.01 in Fog Fog
6:54 AM 60.1 °F 59.0 °F 96% 29.82 in 0.2 mi Calm Calm - 0.01 in Fog Fog
7:03 AM 60.8 °F 59.0 °F 94% 29.83 in 0.5 mi Calm Calm - N/A Fog Fog
7:11 AM 60.8 °F 59.0 °F 94% 29.83 in 0.2 mi Calm Calm - N/A Fog Fog
7:23 AM 60.8 °F 59.0 °F 94% 29.83 in 1.0 mi NNE 4.6 mph - N/A   Overcast
7:54 AM 60.1 °F 59.0 °F 96% 29.83 in 1.0 mi NE 3.5 mph - N/A   Overcast
8:12 AM 60.8 °F 59.0 °F 94% 29.83 in 0.5 mi Calm Calm - 0.00 in Fog , Rain Light Rain
8:30 AM 60.8 °F 60.8 °F 100% 29.83 in 1.2 mi NE 3.5 mph - 0.01 in Rain Light Rain
8:54 AM 61.0 °F 60.1 °F 97% 29.83 in 1.5 mi Calm Calm - 0.01 in Rain Light Rain
9:10 AM 62.6 °F 60.8 °F 94% 29.83 in 2.5 mi East 3.5 mph - 0.00 in   Overcast
9:19 AM 62.6 °F 60.8 °F 94% 29.84 in 3.0 mi East 4.6 mph - 0.00 in   Overcast
9:41 AM 62.6 °F 60.8 °F 94% 29.84 in 5.0 mi East 3.5 mph - 0.00 in   Overcast
9:54 AM 63.0 °F 61.0 °F 93% 29.82 in 8.0 mi ENE 3.5 mph - 0.00 in   Overcast
10:54 AM 63.0 °F 61.0 °F 93% 29.82 in 6.0 mi NE 5.8 mph - N/A   Overcast
11:15 AM 62.6 °F 60.8 °F 94% 29.82 in 8.0 mi ENE 5.8 mph - N/A   Overcast
11:27 AM 62.6 °F 62.6 °F 100% 29.82 in 10.0 mi ENE 4.6 mph - N/A   Overcast
11:54 AM 63.0 °F 61.0 °F 93% 29.81 in 10.0 mi ENE 3.5 mph - N/A   Overcast
12:54 PM 63.0 °F 61.0 °F 93% 29.81 in 10.0 mi ENE 4.6 mph - N/A   Overcast
1:54 PM 64.0 °F 62.1 °F 93% 29.79 in 9.0 mi NNE 3.5 mph - N/A   Overcast
2:41 PM 62.6 °F 62.6 °F 100% 29.79 in 2.5 mi NE 3.5 mph - N/A   Overcast
2:54 PM 63.0 °F 62.1 °F 97% 29.77 in 2.0 mi ENE 4.6 mph - N/A   Overcast
3:05 PM 62.6 °F 60.8 °F 94% 29.78 in 4.0 mi NE 4.6 mph - N/A   Overcast
3:54 PM 63.0 °F 61.0 °F 93% 29.77 in 7.0 mi Variable 3.5 mph - N/A   Overcast
4:40 PM 64.4 °F 62.6 °F 94% 29.77 in 6.0 mi NE 5.8 mph - N/A   Overcast
4:52 PM 64.4 °F 62.6 °F 94% 29.76 in 9.0 mi NNE 3.5 mph - N/A   Overcast
4:54 PM 64.0 °F 62.1 °F 93% 29.75 in 10.0 mi NE 4.6 mph - N/A   Overcast
5:54 PM 64.0 °F 62.1 °F 93% 29.75 in 10.0 mi Calm Calm - N/A   Overcast
6:54 PM 64.0 °F 61.0 °F 90% 29.74 in 10.0 mi ENE 4.6 mph - N/A   Overcast
7:12 PM 64.4 °F 60.8 °F 88% 29.76 in 10.0 mi East 4.6 mph - N/A   Overcast
7:30 PM 64.4 °F 62.6 °F 94% 29.76 in 10.0 mi East 4.6 mph - N/A   Overcast
7:54 PM 63.0 °F 61.0 °F 93% 29.75 in 10.0 mi Calm Calm - N/A   Overcast
8:54 PM 63.0 °F 61.0 °F 93% 29.75 in 10.0 mi Calm Calm - N/A   Overcast
9:27 PM 62.6 °F 60.8 °F 94% 29.78 in 2.5 mi Calm Calm - 0.00 in Rain Light Rain
9:31 PM 62.6 °F 60.8 °F 94% 29.78 in 1.8 mi NW 8.1 mph - 0.01 in Rain Rain
9:44 PM 62.6 °F 60.8 °F 94% 29.78 in 2.0 mi North 8.1 mph - 0.04 in Rain Light Rain
9:49 PM 62.6 °F 60.8 °F 94% 29.78 in 3.0 mi North 5.8 mph - 0.04 in Rain Light Rain
9:54 PM 62.1 °F 61.0 °F 96% 29.77 in 8.0 mi NNW 4.6 mph - 0.04 in Rain Light Rain
10:03 PM 62.6 °F 60.8 °F 94% 29.78 in 10.0 mi NNW 6.9 mph - 0.00 in   Overcast
10:11 PM 62.6 °F 60.8 °F 94% 29.79 in 10.0 mi NNW 4.6 mph - 0.00 in   Overcast
10:27 PM 60.8 °F 59.0 °F 94% 29.79 in 10.0 mi North 5.8 mph - 0.00 in   Overcast
10:54 PM 61.0 °F 59.0 °F 93% 29.79 in 10.0 mi North 4.6 mph - 0.00 in   Overcast
11:54 PM 60.1 °F 57.9 °F 93% 29.80 in 10.0 mi Calm Calm - N/A   Overcast